sensor_id;sensor_type;location;lat;lon;timestamp;pressure;altitude;pressure_sealevel;temperature;humidity
36600;BME280;35385;55.668;37.508;2023-06-24T00:00:22;98662.25;;;17.75;100.00
36600;BME280;35385;55.668;37.508;2023-06-24T00:01:22;98661.66;;;17.73;100.00
36600;BME280;35385;55.668;37.508;2023-06-24T00:02:23;98662.69;;;17.72;100.00
36600;BME280;35385;55.668;37.508;2023-06-24T00:03:26;98668.91;;;17.73;100.00
36600;BME280;35385;55.668;37.508;2023-06-24T00:04:26;98664.53;;;17.72;100.00
36600;BME280;35385;55.668;37.508;2023-06-24T00:05:26;98664.94;;;17.69;100.00
36600;BME280;35385;55.668;37.508;2023-06-24T00:06:27;98666.78;;;17.68;100.00
36600;BME280;35385;55.668;37.508;2023-06-24T00:07:28;98665.13;;;17.67;100.00
36600;BME280;35385;55.668;37.508;2023-06-24T00:08:28;98670.50;;;17.67;100.00
36600;BME280;35385;55.668;37.508;2023-06-24T00:09:34;98670.50;;;17.67;100.00
36600;BME280;35385;55.668;37.508;2023-06-24T00:10:34;98664.28;;;17.66;100.00
36600;BME280;35385;55.668;37.508;2023-06-24T00:11:35;98666.78;;;17.68;100.00
36600;BME280;35385;55.668;37.508;2023-06-24T00:12:35;98663.06;;;17.69;100.00
36600;BME280;35385;55.668;37.508;2023-06-24T00:13:35;98671.81;;;17.71;100.00
36600;BME280;35385;55.668;37.508;2023-06-24T00:14:36;98664.34;;;17.73;100.00
36600;BME280;35385;55.668;37.508;2023-06-24T00:15:37;98663.94;;;17.76;100.00
36600;BME280;35385;55.668;37.508;2023-06-24T00:16:37;98665.59;;;17.77;100.00
36600;BME280;35385;55.668;37.508;2023-06-24T00:17:37;98667.28;;;17.78;100.00
36600;BME280;35385;55.668;37.508;2023-06-24T00:18:38;98661.69;;;17.80;100.00
36600;BME280;35385;55.668;37.508;2023-06-24T00:19:41;98665.41;;;17.79;100.00
36600;BME280;35385;55.668;37.508;2023-06-24T00:20:41;98665.59;;;17.77;100.00
36600;BME280;35385;55.668;37.508;2023-06-24T00:21:43;98667.66;;;17.75;100.00
36600;BME280;35385;55.668;37.508;2023-06-24T00:22:43;98663.94;;;17.76;100.00
36600;BME280;35385;55.668;37.508;2023-06-24T00:23:48;98665.59;;;17.77;100.00
36600;BME280;35385;55.668;37.508;2023-06-24T00:24:49;98665.78;;;17.76;100.00
36600;BME280;35385;55.668;37.508;2023-06-24T00:25:51;98660.81;;;17.73;100.00
36600;BME280;35385;55.668;37.508;2023-06-24T00:26:54;98661.00;;;17.71;100.00
36600;BME280;35385;55.668;37.508;2023-06-24T00:27:54;98656.00;;;17.68;100.00
36600;BME280;35385;55.668;37.508;2023-06-24T00:28:55;98659.72;;;17.67;100.00
36600;BME280;35385;55.668;37.508;2023-06-24T00:29:55;98663.78;;;17.63;100.00
36600;BME280;35385;55.668;37.508;2023-06-24T00:30:55;98671.47;;;17.59;100.00
36600;BME280;35385;55.668;37.508;2023-06-24T00:31:56;98665.63;;;17.56;100.00
36600;BME280;35385;55.668;37.508;2023-06-24T00:32:56;98676.63;;;17.54;100.00
36600;BME280;35385;55.668;37.508;2023-06-24T00:33:57;98663.94;;;17.55;100.00
36600;BME280;35385;55.668;37.508;2023-06-24T00:34:57;98666.84;;;17.53;100.00
36600;BME280;35385;55.668;37.508;2023-06-24T00:36:00;98674.09;;;17.53;100.00
36600;BME280;35385;55.668;37.508;2023-06-24T00:37:00;98656.88;;;17.54;100.00
36600;BME280;35385;55.668;37.508;2023-06-24T00:38:03;98668.72;;;17.53;100.00
36600;BME280;35385;55.668;37.508;2023-06-24T00:39:04;98661.63;;;17.52;100.00
36600;BME280;35385;55.668;37.508;2023-06-24T00:40:05;98659.13;;;17.50;100.00
36600;BME280;35385;55.668;37.508;2023-06-24T00:41:06;98648.28;;;17.44;100.00
36600;BME280;35385;55.668;37.508;2023-06-24T00:42:07;98659.47;;;17.41;100.00
36600;BME280;35385;55.668;37.508;2023-06-24T00:43:07;98656.97;;;17.39;100.00
36600;BME280;35385;55.668;37.508;2023-06-24T00:44:08;98660.69;;;17.38;100.00
36600;BME280;35385;55.668;37.508;2023-06-24T00:45:09;98655.66;;;17.35;100.00
36600;BME280;35385;55.668;37.508;2023-06-24T00:46:10;98658.72;;;17.25;100.00
36600;BME280;35385;55.668;37.508;2023-06-24T00:47:10;98657.41;;;17.21;100.00
36600;BME280;35385;55.668;37.508;2023-06-24T00:48:11;98659.66;;;17.18;100.00
36600;BME280;35385;55.668;37.508;2023-06-24T00:49:11;98651.78;;;17.16;100.00
36600;BME280;35385;55.668;37.508;2023-06-24T00:50:16;98653.84;;;17.14;100.00
36600;BME280;35385;55.668;37.508;2023-06-24T00:51:17;98647.97;;;17.11;100.00
36600;BME280;35385;55.668;37.508;2023-06-24T00:52:19;98650.88;;;17.09;100.00
36600;BME280;35385;55.668;37.508;2023-06-24T00:53:19;98648.16;;;17.09;100.00
36600;BME280;35385;55.668;37.508;2023-06-24T00:54:24;98650.22;;;17.07;100.00
36600;BME280;35385;55.668;37.508;2023-06-24T00:55:30;98648.72;;;17.05;100.00
36600;BME280;35385;55.668;37.508;2023-06-24T00:56:31;98645.19;;;17.04;100.00
36600;BME280;35385;55.668;37.508;2023-06-24T00:57:33;98643.53;;;17.03;100.00
36600;BME280;35385;55.668;37.508;2023-06-24T00:58:33;98660.38;;;17.05;100.00
36600;BME280;35385;55.668;37.508;2023-06-24T00:59:35;98654.97;;;17.05;100.00
36600;BME280;35385;55.668;37.508;2023-06-24T01:00:36;98654.13;;;17.05;100.00
36600;BME280;35385;55.668;37.508;2023-06-24T01:01:37;98653.28;;;17.04;100.00
36600;BME280;35385;55.668;37.508;2023-06-24T01:02:38;98649.56;;;17.05;100.00
36600;BME280;35385;55.668;37.508;2023-06-24T01:03:38;98650.22;;;17.07;100.00
36600;BME280;35385;55.668;37.508;2023-06-24T01:04:40;98651.69;;;17.10;100.00
36600;BME280;35385;55.668;37.508;2023-06-24T01:05:41;98652.09;;;17.07;100.00
36600;BME280;35385;55.668;37.508;2023-06-24T01:06:41;98650.53;;;16.98;100.00
36600;BME280;35385;55.668;37.508;2023-06-24T01:07:43;98655.09;;;16.97;100.00
36600;BME280;35385;55.668;37.508;2023-06-24T01:08:44;98651.19;;;17.00;100.00
36600;BME280;35385;55.668;37.508;2023-06-24T01:09:50;98654.31;;;17.03;100.00
36600;BME280;35385;55.668;37.508;2023-06-24T01:10:51;98653.09;;;17.06;100.00
36600;BME280;35385;55.668;37.508;2023-06-24T01:11:51;98652.53;;;17.10;100.00
36600;BME280;35385;55.668;37.508;2023-06-24T01:12:52;98652.81;;;17.15;100.00
36600;BME280;35385;55.668;37.508;2023-06-24T01:13:53;98649.69;;;17.18;100.00
36600;BME280;35385;55.668;37.508;2023-06-24T01:14:53;98649.97;;;17.23;100.00
36600;BME280;35385;55.668;37.508;2023-06-24T01:15:54;98658.53;;;17.27;100.00
36600;BME280;35385;55.668;37.508;2023-06-24T01:16:57;98660.63;;;17.31;100.00
36600;BME280;35385;55.668;37.508;2023-06-24T01:20:29;98661.88;;;17.29;100.00
36600;BME280;35385;55.668;37.508;2023-06-24T01:32:43;98663.31;;;17.31;100.00
36600;BME280;35385;55.668;37.508;2023-06-24T01:33:46;98662.28;;;17.32;100.00
36600;BME280;35385;55.668;37.508;2023-06-24T01:34:55;98661.91;;;17.36;100.00
36600;BME280;35385;55.668;37.508;2023-06-24T01:35:57;98658.19;;;17.37;100.00
36600;BME280;35385;55.668;37.508;2023-06-24T01:38:31;98656.59;;;17.42;100.00
36600;BME280;35385;55.668;37.508;2023-06-24T01:39:36;98660.75;;;17.45;100.00
36600;BME280;35385;55.668;37.508;2023-06-24T01:40:38;98655.75;;;17.42;100.00
36600;BME280;35385;55.668;37.508;2023-06-24T01:41:47;98654.84;;;17.35;100.00
36600;BME280;35385;55.668;37.508;2023-06-24T01:42:51;98652.50;;;17.31;100.00
36600;BME280;35385;55.668;37.508;2023-06-24T01:43:52;98656.88;;;17.32;100.00
36600;BME280;35385;55.668;37.508;2023-06-24T01:44:53;98650.91;;;17.37;100.00
36600;BME280;35385;55.668;37.508;2023-06-24T01:45:54;98654.00;;;17.34;100.00
36600;BME280;35385;55.668;37.508;2023-06-24T01:46:57;98655.22;;;17.31;100.00
36600;BME280;35385;55.668;37.508;2023-06-24T01:48:14;98656.28;;;17.30;100.00
36600;BME280;35385;55.668;37.508;2023-06-24T01:49:15;98658.97;;;17.30;100.00
36600;BME280;35385;55.668;37.508;2023-06-24T01:50:16;98655.22;;;17.31;100.00
36600;BME280;35385;55.668;37.508;2023-06-24T01:51:20;98653.16;;;17.33;100.00
36600;BME280;35385;55.668;37.508;2023-06-24T01:52:21;98657.53;;;17.35;100.00
36600;BME280;35385;55.668;37.508;2023-06-24T01:53:23;98647.38;;;17.37;100.00
36600;BME280;35385;55.668;37.508;2023-06-24T01:54:24;98656.31;;;17.37;100.00
36600;BME280;35385;55.668;37.508;2023-06-24T01:55:26;98661.53;;;17.39;100.00
36600;BME280;35385;55.668;37.508;2023-06-24T01:56:29;98667.00;;;17.45;100.00
36600;BME280;35385;55.668;37.508;2023-06-24T01:57:29;98657.66;;;17.48;100.00
36600;BME280;35385;55.668;37.508;2023-06-24T01:58:31;98658.25;;;17.43;100.00
36600;BME280;35385;55.668;37.508;2023-06-24T01:59:32;98661.66;;;17.30;100.00
36600;BME280;35385;55.668;37.508;2023-06-24T02:00:33;98672.19;;;17.25;100.00
36600;BME280;35385;55.668;37.508;2023-06-24T02:01:35;98669.50;;;17.25;100.00
36600;BME280;35385;55.668;37.508;2023-06-24T02:02:36;98665.59;;;17.28;100.00
36600;BME280;35385;55.668;37.508;2023-06-24T02:03:37;98670.78;;;17.29;100.00
36600;BME280;35385;55.668;37.508;2023-06-24T02:04:38;98666.44;;;17.28;100.00
36600;BME280;35385;55.668;37.508;2023-06-24T02:05:39;98667.81;;;17.24;100.00
36600;BME280;35385;55.668;37.508;2023-06-24T02:06:40;98668.59;;;17.18;100.00
36600;BME280;35385;55.668;37.508;2023-06-24T02:07:41;98665.84;;;17.12;100.00
36600;BME280;35385;55.668;37.508;2023-06-24T02:08:42;98658.50;;;17.06;100.00
36600;BME280;35385;55.668;37.508;2023-06-24T02:09:43;98669.47;;;17.04;100.00
36600;BME280;35385;55.668;37.508;2023-06-24T02:10:44;98670.31;;;17.05;100.00
36600;BME280;35385;55.668;37.508;2023-06-24T02:11:46;98675.97;;;17.10;100.00
36600;BME280;35385;55.668;37.508;2023-06-24T02:12:47;98674.97;;;17.11;100.00
36600;BME280;35385;55.668;37.508;2023-06-24T02:13:48;98680.16;;;17.12;100.00
36600;BME280;35385;55.668;37.508;2023-06-24T02:14:49;98678.88;;;17.08;100.00
36600;BME280;35385;55.668;37.508;2023-06-24T02:15:51;98677.19;;;17.07;100.00
36600;BME280;35385;55.668;37.508;2023-06-24T02:16:52;98687.34;;;17.05;100.00
36600;BME280;35385;55.668;37.508;2023-06-24T02:17:57;98677.84;;;17.09;100.00
36600;BME280;35385;55.668;37.508;2023-06-24T02:18:58;98672.91;;;17.13;100.00
36600;BME280;35385;55.668;37.508;2023-06-24T02:19:59;98675.78;;;17.11;100.00
36600;BME280;35385;55.668;37.508;2023-06-24T02:21:00;98669.56;;;17.11;100.00
36600;BME280;35385;55.668;37.508;2023-06-24T02:22:01;98679.91;;;17.07;100.00
36600;BME280;35385;55.668;37.508;2023-06-24T02:23:02;98676.53;;;17.05;100.00
36600;BME280;35385;55.668;37.508;2023-06-24T02:24:05;98674.03;;;17.04;100.00
36600;BME280;35385;55.668;37.508;2023-06-24T02:25:06;98676.75;;;17.04;100.00
36600;BME280;35385;55.668;37.508;2023-06-24T02:26:06;98674.25;;;17.02;100.00
36600;BME280;35385;55.668;37.508;2023-06-24T02:27:07;98681.06;;;16.98;100.00
36600;BME280;35385;55.668;37.508;2023-06-24T02:28:08;98679.75;;;16.94;100.00
36600;BME280;35385;55.668;37.508;2023-06-24T02:29:09;98675.75;;;16.90;100.00
36600;BME280;35385;55.668;37.508;2023-06-24T02:30:11;98677.63;;;16.89;100.00
36600;BME280;35385;55.668;37.508;2023-06-24T02:31:12;98682.91;;;16.98;100.00
36600;BME280;35385;55.668;37.508;2023-06-24T02:32:13;98681.50;;;17.02;100.00
36600;BME280;35385;55.668;37.508;2023-06-24T02:33:13;98682.78;;;17.06;100.00
36600;BME280;35385;55.668;37.508;2023-06-24T02:34:15;98678.31;;;17.13;100.00
36600;BME280;35385;55.668;37.508;2023-06-24T02:35:15;98678.59;;;17.03;100.00
36600;BME280;35385;55.668;37.508;2023-06-24T02:36:16;98686.44;;;16.98;100.00
36600;BME280;35385;55.668;37.508;2023-06-24T02:37:16;98680.22;;;16.98;100.00
36600;BME280;35385;55.668;37.508;2023-06-24T02:38:17;98672.97;;;16.98;100.00
36600;BME280;35385;55.668;37.508;2023-06-24T02:39:17;98673.97;;;16.97;100.00
36600;BME280;35385;55.668;37.508;2023-06-24T02:40:18;98679.38;;;16.97;100.00
36600;BME280;35385;55.668;37.508;2023-06-24T02:41:18;98685.59;;;16.98;100.00
36600;BME280;35385;55.668;37.508;2023-06-24T02:42:19;98679.38;;;16.97;100.00
36600;BME280;35385;55.668;37.508;2023-06-24T02:43:19;98673.81;;;16.99;100.00
36600;BME280;35385;55.668;37.508;2023-06-24T02:44:20;98680.53;;;16.88;100.00
36600;BME280;35385;55.668;37.508;2023-06-24T02:45:20;98682.63;;;16.71;100.00
36600;BME280;35385;55.668;37.508;2023-06-24T02:46:21;98678.63;;;16.52;100.00
36600;BME280;35385;55.668;37.508;2023-06-24T02:47:22;98681.97;;;16.54;100.00
36600;BME280;35385;55.668;37.508;2023-06-24T02:48:23;98671.44;;;16.59;100.00
36600;BME280;35385;55.668;37.508;2023-06-24T02:49:24;98679.00;;;16.64;100.00
36600;BME280;35385;55.668;37.508;2023-06-24T02:50:25;98687.25;;;16.63;100.00
36600;BME280;35385;55.668;37.508;2023-06-24T02:51:25;98681.78;;;16.71;100.00
36600;BME280;35385;55.668;37.508;2023-06-24T02:52:26;98677.28;;;16.78;100.00
36600;BME280;35385;55.668;37.508;2023-06-24T02:53:30;98677.28;;;16.78;100.00
36600;BME280;35385;55.668;37.508;2023-06-24T02:54:31;98684.16;;;16.80;100.00
36600;BME280;35385;55.668;37.508;2023-06-24T02:55:32;98679.59;;;16.81;100.00
36600;BME280;35385;55.668;37.508;2023-06-24T02:56:34;98677.56;;;16.83;100.00
36600;BME280;35385;55.668;37.508;2023-06-24T02:57:35;98679.69;;;16.87;100.00
36600;BME280;35385;55.668;37.508;2023-06-24T02:58:36;98683.41;;;16.86;100.00
36600;BME280;35385;55.668;37.508;2023-06-24T02:59:38;98686.53;;;16.90;100.00
36600;BME280;35385;55.668;37.508;2023-06-24T03:00:38;98682.19;;;16.89;100.00
36600;BME280;35385;55.668;37.508;2023-06-24T03:01:39;98682.81;;;16.91;100.00
36600;BME280;35385;55.668;37.508;2023-06-24T03:02:43;98686.81;;;16.95;100.00
36600;BME280;35385;55.668;37.508;2023-06-24T03:03:43;98688.97;;;17.00;100.00
36600;BME280;35385;55.668;37.508;2023-06-24T03:04:50;98681.25;;;16.96;100.00
36600;BME280;35385;55.668;37.508;2023-06-24T03:05:51;98684.41;;;17.00;100.00
36600;BME280;35385;55.668;37.508;2023-06-24T03:06:53;98679.38;;;16.97;100.00
36600;BME280;35385;55.668;37.508;2023-06-24T03:07:54;98684.78;;;16.97;100.00
36600;BME280;35385;55.668;37.508;2023-06-24T03:08:54;98677.72;;;16.96;100.00
36600;BME280;35385;55.668;37.508;2023-06-24T03:09:55;98676.41;;;16.92;100.00
36600;BME280;35385;55.668;37.508;2023-06-24T03:10:55;98680.81;;;16.78;100.00
36600;BME280;35385;55.668;37.508;2023-06-24T03:11:56;98679.16;;;16.77;100.00
36600;BME280;35385;55.668;37.508;2023-06-24T03:12:56;98671.72;;;16.79;100.00
36600;BME280;35385;55.668;37.508;2023-06-24T03:13:57;98675.88;;;16.82;100.00
36600;BME280;35385;55.668;37.508;2023-06-24T03:14:58;98676.34;;;16.85;100.00
36600;BME280;35385;55.668;37.508;2023-06-24T03:15:58;98677.84;;;16.88;100.00
36600;BME280;35385;55.668;37.508;2023-06-24T03:16:58;98677.56;;;16.83;100.00
36600;BME280;35385;55.668;37.508;2023-06-24T03:17:59;98674.59;;;16.78;100.00
36600;BME280;35385;55.668;37.508;2023-06-24T03:18:59;98679.34;;;16.76;100.00
36600;BME280;35385;55.668;37.508;2023-06-24T03:20:00;98681.38;;;16.74;100.00
36600;BME280;35385;55.668;37.508;2023-06-24T03:21:00;98687.06;;;16.79;100.00
36600;BME280;35385;55.668;37.508;2023-06-24T03:22:00;98679.78;;;16.79;100.00
36600;BME280;35385;55.668;37.508;2023-06-24T03:23:02;98686.22;;;16.78;100.00
36600;BME280;35385;55.668;37.508;2023-06-24T03:24:03;98677.47;;;16.76;100.00
36600;BME280;35385;55.668;37.508;2023-06-24T03:25:03;98675.50;;;16.85;100.00
36600;BME280;35385;55.668;37.508;2023-06-24T03:26:04;98677.84;;;16.88;100.00
36600;BME280;35385;55.668;37.508;2023-06-24T03:27:05;98683.59;;;16.85;100.00
36600;BME280;35385;55.668;37.508;2023-06-24T03:28:06;98673.84;;;16.84;100.00
36600;BME280;35385;55.668;37.508;2023-06-24T03:29:07;98675.34;;;16.86;100.00
36600;BME280;35385;55.668;37.508;2023-06-24T03:30:08;98681.16;;;16.90;100.00
36600;BME280;35385;55.668;37.508;2023-06-24T03:31:09;98680.13;;;16.91;100.00
36600;BME280;35385;55.668;37.508;2023-06-24T03:32:10;98671.00;;;16.92;100.00
36600;BME280;35385;55.668;37.508;2023-06-24T03:33:10;98680.13;;;16.91;100.00
36600;BME280;35385;55.668;37.508;2023-06-24T03:34:10;98680.31;;;16.89;100.00
36600;BME280;35385;55.668;37.508;2023-06-24T03:35:11;98676.41;;;16.92;100.00
36600;BME280;35385;55.668;37.508;2023-06-24T03:36:11;98675.66;;;16.98;100.00
36600;BME280;35385;55.668;37.508;2023-06-24T03:37:13;98679.84;;;17.01;100.00
36600;BME280;35385;55.668;37.508;2023-06-24T03:38:13;98681.75;;;17.07;100.00
36600;BME280;35385;55.668;37.508;2023-06-24T03:39:13;98678.88;;;17.08;100.00
36600;BME280;35385;55.668;37.508;2023-06-24T03:40:14;98681.69;;;17.00;100.00
36600;BME280;35385;55.668;37.508;2023-06-24T03:41:14;98678.22;;;16.85;100.00
36600;BME280;35385;55.668;37.508;2023-06-24T03:42:14;98679.97;;;16.78;100.00
36600;BME280;35385;55.668;37.508;2023-06-24T03:43:15;98673.56;;;16.79;100.00
36600;BME280;35385;55.668;37.508;2023-06-24T03:44:15;98681.38;;;16.74;100.00
36600;BME280;35385;55.668;37.508;2023-06-24T03:45:16;98679.09;;;16.71;100.00
36600;BME280;35385;55.668;37.508;2023-06-24T03:46:16;98680.09;;;16.70;100.00
36600;BME280;35385;55.668;37.508;2023-06-24T03:47:16;98673.69;;;16.71;100.00
36600;BME280;35385;55.668;37.508;2023-06-24T03:48:17;98679.47;;;16.68;100.00
36600;BME280;35385;55.668;37.508;2023-06-24T03:49:17;98691.44;;;16.65;100.00
36600;BME280;35385;55.668;37.508;2023-06-24T03:50:18;98677.41;;;16.70;100.00
36600;BME280;35385;55.668;37.508;2023-06-24T03:51:18;98690.06;;;16.69;100.00
36600;BME280;35385;55.668;37.508;2023-06-24T03:52:19;98691.91;;;16.69;100.00
36600;BME280;35385;55.668;37.508;2023-06-24T03:53:19;98683.63;;;16.70;100.00
36600;BME280;35385;55.668;37.508;2023-06-24T03:54:20;98691.78;;;16.77;100.00
36600;BME280;35385;55.668;37.508;2023-06-24T03:55:20;98688.91;;;16.78;100.00
36600;BME280;35385;55.668;37.508;2023-06-24T03:56:20;98691.88;;;16.83;100.00
36600;BME280;35385;55.668;37.508;2023-06-24T03:57:21;98696.44;;;16.83;100.00
36600;BME280;35385;55.668;37.508;2023-06-24T03:58:22;98692.53;;;16.85;100.00
36600;BME280;35385;55.668;37.508;2023-06-24T03:59:22;98697.97;;;16.92;100.00
36600;BME280;35385;55.668;37.508;2023-06-24T04:00:23;98694.25;;;16.93;100.00
36600;BME280;35385;55.668;37.508;2023-06-24T04:01:23;98702.34;;;16.93;100.00
36600;BME280;35385;55.668;37.508;2023-06-24T04:02:24;98692.53;;;16.85;100.00
36600;BME280;35385;55.668;37.508;2023-06-24T04:03:24;98700.44;;;16.87;100.00
36600;BME280;35385;55.668;37.508;2023-06-24T04:04:27;98706.19;;;16.84;100.00
36600;BME280;35385;55.668;37.508;2023-06-24T04:05:28;98694.94;;;16.80;100.00
36600;BME280;35385;55.668;37.508;2023-06-24T04:06:29;98695.41;;;16.84;100.00
36600;BME280;35385;55.668;37.508;2023-06-24T04:07:29;98683.69;;;16.77;100.00
36600;BME280;35385;55.668;37.508;2023-06-24T04:08:29;98691.41;;;16.80;100.00
36600;BME280;35385;55.668;37.508;2023-06-24T04:09:31;98691.22;;;16.81;100.00
36600;BME280;35385;55.668;37.508;2023-06-24T04:10:31;98694.38;;;16.85;100.00
36600;BME280;35385;55.668;37.508;2023-06-24T04:11:32;98692.13;;;16.88;100.00
36600;BME280;35385;55.668;37.508;2023-06-24T04:12:32;98688.34;;;16.83;100.00
36600;BME280;35385;55.668;37.508;2023-06-24T04:13:33;98688.72;;;16.80;100.00
36600;BME280;35385;55.668;37.508;2023-06-24T04:14:33;98691.69;;;16.85;100.00
36600;BME280;35385;55.668;37.508;2023-06-24T04:15:33;98696.50;;;16.89;100.00
36600;BME280;35385;55.668;37.508;2023-06-24T04:16:34;98681.81;;;16.92;100.00
36600;BME280;35385;55.668;37.508;2023-06-24T04:17:35;98695.88;;;16.87;100.00
36600;BME280;35385;55.668;37.508;2023-06-24T04:18:35;98706.56;;;16.81;100.00
36600;BME280;35385;55.668;37.508;2023-06-24T04:19:39;98688.34;;;16.83;100.00
36600;BME280;35385;55.668;37.508;2023-06-24T04:20:39;98698.22;;;16.76;100.00
36600;BME280;35385;55.668;37.508;2023-06-24T04:21:40;98694.13;;;16.80;100.00
36600;BME280;35385;55.668;37.508;2023-06-24T04:22:41;98692.44;;;16.79;100.00
36600;BME280;35385;55.668;37.508;2023-06-24T04:23:41;98696.09;;;16.71;100.00
36600;BME280;35385;55.668;37.508;2023-06-24T04:24:41;98703.72;;;16.68;100.00
36600;BME280;35385;55.668;37.508;2023-06-24T04:25:42;98696.94;;;16.72;100.00
36600;BME280;35385;55.668;37.508;2023-06-24T04:26:42;98704.06;;;16.79;100.00
36600;BME280;35385;55.668;37.508;2023-06-24T04:27:43;98709.16;;;16.89;100.00
36600;BME280;35385;55.668;37.508;2023-06-24T04:28:43;98702.03;;;17.03;100.00
36600;BME280;35385;55.668;37.508;2023-06-24T04:29:43;98699.50;;;17.16;100.00
36600;BME280;35385;55.668;37.508;2023-06-24T04:30:44;98704.00;;;17.30;100.00
36600;BME280;35385;55.668;37.508;2023-06-24T04:31:44;98704.84;;;17.30;100.00
36600;BME280;35385;55.668;37.508;2023-06-24T04:32:44;98711.66;;;17.26;100.00
36600;BME280;35385;55.668;37.508;2023-06-24T04:33:45;98706.81;;;17.22;100.00
36600;BME280;35385;55.668;37.508;2023-06-24T04:34:45;98704.25;;;17.14;100.00
36600;BME280;35385;55.668;37.508;2023-06-24T04:35:46;98712.63;;;17.04;100.00
36600;BME280;35385;55.668;37.508;2023-06-24T04:36:46;98710.59;;;17.06;100.00
36600;BME280;35385;55.668;37.508;2023-06-24T04:37:47;98715.53;;;17.03;100.00
36600;BME280;35385;55.668;37.508;2023-06-24T04:38:49;98708.88;;;16.99;100.00
36600;BME280;35385;55.668;37.508;2023-06-24T04:39:50;98715.78;;;16.86;100.00
36600;BME280;35385;55.668;37.508;2023-06-24T04:40:51;98720.72;;;16.83;100.00
36600;BME280;35385;55.668;37.508;2023-06-24T04:41:51;98721.38;;;16.85;100.00
36600;BME280;35385;55.668;37.508;2023-06-24T04:42:51;98727.41;;;16.87;100.00
36600;BME280;35385;55.668;37.508;2023-06-24T04:43:52;98727.66;;;16.92;100.00
36600;BME280;35385;55.668;37.508;2023-06-24T04:44:52;98726.44;;;16.94;100.00
36600;BME280;35385;55.668;37.508;2023-06-24T04:45:53;98721.97;;;17.02;100.00
36600;BME280;35385;55.668;37.508;2023-06-24T04:46:55;98721.56;;;17.05;100.00
36600;BME280;35385;55.668;37.508;2023-06-24T04:47:55;98729.56;;;17.13;100.00
36600;BME280;35385;55.668;37.508;2023-06-24T04:48:55;98722.13;;;17.15;100.00
36600;BME280;35385;55.668;37.508;2023-06-24T04:49:56;98736.50;;;17.22;100.00
36600;BME280;35385;55.668;37.508;2023-06-24T04:50:56;98725.38;;;17.31;100.00
36600;BME280;35385;55.668;37.508;2023-06-24T04:52:01;98721.94;;;17.38;100.00
36600;BME280;35385;55.668;37.508;2023-06-24T04:53:01;98722.19;;;17.43;100.00
36600;BME280;35385;55.668;37.508;2023-06-24T04:54:02;98734.97;;;17.34;100.00
36600;BME280;35385;55.668;37.508;2023-06-24T04:55:02;98727.84;;;17.26;100.00
36600;BME280;35385;55.668;37.508;2023-06-24T04:56:04;98731.25;;;17.14;100.00
36600;BME280;35385;55.668;37.508;2023-06-24T04:57:06;98736.03;;;17.18;100.00
36600;BME280;35385;55.668;37.508;2023-06-24T04:58:06;98730.03;;;17.16;100.00
36600;BME280;35385;55.668;37.508;2023-06-24T04:59:07;98734.31;;;17.11;100.00
36600;BME280;35385;55.668;37.508;2023-06-24T05:00:07;98731.06;;;17.15;100.00
36600;BME280;35385;55.668;37.508;2023-06-24T05:01:08;98731.47;;;17.19;100.00
36600;BME280;35385;55.668;37.508;2023-06-24T05:02:08;98734.84;;;17.21;100.00
36600;BME280;35385;55.668;37.508;2023-06-24T05:03:09;98727.75;;;17.20;100.00
36600;BME280;35385;55.668;37.508;2023-06-24T05:04:09;98729.25;;;17.22;100.00
36600;BME280;35385;55.668;37.508;2023-06-24T05:05:09;98738.41;;;17.07;100.00
36600;BME280;35385;55.668;37.508;2023-06-24T05:06:10;98730.91;;;17.02;100.00
36600;BME280;35385;55.668;37.508;2023-06-24T05:07:10;98734.72;;;16.93;100.00
36600;BME280;35385;55.668;37.508;2023-06-24T05:08:10;98732.81;;;16.87;100.00
36600;BME280;35385;55.668;37.508;2023-06-24T05:09:11;98738.94;;;16.81;100.00
36600;BME280;35385;55.668;37.508;2023-06-24T05:10:13;98740.13;;;16.78;100.00
36600;BME280;35385;55.668;37.508;2023-06-24T05:11:14;98737.53;;;16.85;100.00
36600;BME280;35385;55.668;37.508;2023-06-24T05:12:14;98734.06;;;16.91;100.00
36600;BME280;35385;55.668;37.508;2023-06-24T05:13:15;98738.25;;;16.93;100.00
36600;BME280;35385;55.668;37.508;2023-06-24T05:14:15;98734.16;;;16.98;100.00
36600;BME280;35385;55.668;37.508;2023-06-24T05:15:16;98734.22;;;17.04;100.00
36600;BME280;35385;55.668;37.508;2023-06-24T05:16:16;98740.09;;;17.08;100.00
36600;BME280;35385;55.668;37.508;2023-06-24T05:17:17;98743.63;;;17.08;100.00
36600;BME280;35385;55.668;37.508;2023-06-24T05:18:17;98732.81;;;17.08;100.00
36600;BME280;35385;55.668;37.508;2023-06-24T05:19:17;98741.00;;;17.15;100.00
36600;BME280;35385;55.668;37.508;2023-06-24T05:20:18;98736.81;;;17.12;100.00
36600;BME280;35385;55.668;37.508;2023-06-24T05:21:18;98749.94;;;17.15;100.00
36600;BME280;35385;55.668;37.508;2023-06-24T05:22:18;98733.25;;;17.26;100.00
36600;BME280;35385;55.668;37.508;2023-06-24T05:23:19;98739.66;;;17.47;100.00
36600;BME280;35385;55.668;37.508;2023-06-24T05:24:19;98738.41;;;17.43;100.00
36600;BME280;35385;55.668;37.508;2023-06-24T05:25:20;98749.06;;;17.51;100.00
36600;BME280;35385;55.668;37.508;2023-06-24T05:26:20;98731.16;;;17.64;100.00
36600;BME280;35385;55.668;37.508;2023-06-24T05:27:20;98740.34;;;17.70;100.00
36600;BME280;35385;55.668;37.508;2023-06-24T05:28:21;98730.75;;;17.67;100.00
36600;BME280;35385;55.668;37.508;2023-06-24T05:29:21;98725.25;;;17.61;100.00
36600;BME280;35385;55.668;37.508;2023-06-24T05:30:21;98728.56;;;17.56;100.00